Time;durP1;ratioP1;P1;durP2;ratioP2;P2;SDS_P1;SDS_P2;PMS_P1;PMS_P2;Temp;Humidity;BMP_temperature;BMP_pressure;BME280_temperature;BME280_humidity;BME280_pressure;Samples;Min_cycle;Max_cycle;Signal;HPM_P1;HPM_P2
2023/03/26 00:02:28;;;;;;;8.88;6.43;;;;;;;;;;5093491;28;20024;-70
2023/03/26 00:05:14;;;;;;;8.80;6.53;;;;;;;;;;5093242;28;20016;-70
2023/03/26 00:08:00;;;;;;;9.10;6.60;;;;;;;;;;5093740;28;20461;-71
2023/03/26 00:10:45;;;;;;;9.65;6.47;;;;;;;;;;5094070;28;20103;-71
2023/03/26 00:13:32;;;;;;;9.45;6.93;;;;;;;;;;5093070;28;20355;-71
2023/03/26 00:16:18;;;;;;;8.90;6.85;;;;;;;;;;5093441;28;20035;-71
2023/03/26 00:19:04;;;;;;;8.60;6.15;;;;;;;;;;5093631;28;20356;-71
2023/03/26 00:21:50;;;;;;;8.00;5.47;;;;;;;;;;5093345;28;20028;-71
2023/03/26 00:24:36;;;;;;;7.93;5.50;;;;;;;;;;5080457;28;20020;-70
2023/03/26 00:27:22;;;;;;;8.57;6.00;;;;;;;;;;5094414;28;20076;-69
2023/03/26 00:30:07;;;;;;;8.10;5.72;;;;;;;;;;5093769;28;20333;-70
2023/03/26 00:32:53;;;;;;;6.78;5.07;;;;;;;;;;5093158;28;20060;-70
2023/03/26 00:35:39;;;;;;;9.40;5.90;;;;;;;;;;5092619;28;20085;-70
2023/03/26 00:38:25;;;;;;;8.10;5.68;;;;;;;;;;5093057;28;20035;-70
2023/03/26 00:41:21;;;;;;;9.27;6.07;;;;;;;;;;5093176;28;20024;-70
2023/03/26 00:44:07;;;;;;;8.63;5.70;;;;;;;;;;5093087;28;20028;-69
2023/03/26 00:46:53;;;;;;;8.93;5.60;;;;;;;;;;5093495;28;20008;-70
2023/03/26 00:49:38;;;;;;;8.18;5.20;;;;;;;;;;5092813;28;20031;-69
2023/03/26 00:52:27;;;;;;;7.50;5.28;;;;;;;;;;5092970;28;20016;-70
2023/03/26 00:55:14;;;;;;;11.18;5.50;;;;;;;;;;5093080;28;20019;-70
2023/03/26 00:58:00;;;;;;;9.55;6.53;;;;;;;;;;5093322;28;20035;-70
2023/03/26 01:00:57;;;;;;;9.70;6.45;;;;;;;;;;5093547;28;20100;-69
2023/03/26 01:03:43;;;;;;;8.77;6.68;;;;;;;;;;5092959;28;20028;-68
2023/03/26 01:06:31;;;;;;;7.43;5.75;;;;;;;;;;5093041;28;20115;-70
2023/03/26 01:09:17;;;;;;;9.35;6.00;;;;;;;;;;5093195;28;20089;-70
2023/03/26 01:12:05;;;;;;;6.07;5.03;;;;;;;;;;5093415;28;20016;-70
2023/03/26 01:14:53;;;;;;;7.80;5.10;;;;;;;;;;5092773;28;20031;-69
2023/03/26 01:17:38;;;;;;;7.93;5.22;;;;;;;;;;5093371;28;20101;-70
2023/03/26 01:20:29;;;;;;;9.48;5.05;;;;;;;;;;5094061;28;20044;-70
2023/03/26 01:23:18;;;;;;;9.15;4.57;;;;;;;;;;5092540;28;20024;-70
2023/03/26 01:26:23;;;;;;;6.68;4.07;;;;;;;;;;5093327;28;20368;-70
2023/03/26 01:29:13;;;;;;;6.70;3.83;;;;;;;;;;5094312;28;20031;-70
2023/03/26 01:31:58;;;;;;;4.00;3.10;;;;;;;;;;5094433;28;20374;-70
2023/03/26 01:35:03;;;;;;;5.45;3.45;;;;;;;;;;5097154;28;20449;-70
2023/03/26 01:38:00;;;;;;;6.57;3.30;;;;;;;;;;5096679;28;20441;-70
2023/03/26 01:40:49;;;;;;;4.05;3.00;;;;;;;;;;5096515;28;20117;-70
2023/03/26 01:43:44;;;;;;;7.82;2.83;;;;;;;;;;5096350;28;20016;-70
2023/03/26 01:46:34;;;;;;;4.78;2.88;;;;;;;;;;5082696;28;20364;-70
2023/03/26 01:49:20;;;;;;;3.15;2.67;;;;;;;;;;5096122;28;20012;-70
2023/03/26 01:52:18;;;;;;;4.22;2.85;;;;;;;;;;5095437;28;20104;-70
2023/03/26 01:55:04;;;;;;;5.32;2.70;;;;;;;;;;5096411;28;20069;-70
2023/03/26 01:58:01;;;;;;;5.53;3.08;;;;;;;;;;5082680;28;20021;-70
2023/03/26 02:01:05;;;;;;;3.47;2.90;;;;;;;;;;5095876;28;20429;-70
2023/03/26 02:03:55;;;;;;;3.97;3.10;;;;;;;;;;5095754;28;20028;-70
2023/03/26 02:06:41;;;;;;;4.70;3.22;;;;;;;;;;5082687;28;20491;-70
2023/03/26 02:09:29;;;;;;;5.43;3.50;;;;;;;;;;5096550;28;20028;-71
2023/03/26 02:12:15;;;;;;;4.50;3.10;;;;;;;;;;5095766;28;20016;-70
2023/03/26 02:15:01;;;;;;;4.35;3.20;;;;;;;;;;5096272;28;20110;-70
2023/03/26 02:17:48;;;;;;;4.78;3.58;;;;;;;;;;5095619;28;20419;-70
2023/03/26 02:20:33;;;;;;;4.65;3.78;;;;;;;;;;5095792;28;20521;-71
2023/03/26 02:23:19;;;;;;;6.78;3.85;;;;;;;;;;5095392;28;20027;-69
2023/03/26 02:26:09;;;;;;;4.57;3.28;;;;;;;;;;5095863;28;20452;-71
2023/03/26 02:28:55;;;;;;;4.47;3.65;;;;;;;;;;5095749;28;20115;-70
2023/03/26 02:31:42;;;;;;;5.53;3.92;;;;;;;;;;5082025;28;20052;-70
2023/03/26 02:34:27;;;;;;;5.18;4.28;;;;;;;;;;5081516;28;20325;-70
2023/03/26 02:37:13;;;;;;;5.60;4.00;;;;;;;;;;5082160;28;20464;-69
2023/03/26 02:39:59;;;;;;;8.48;4.45;;;;;;;;;;5095028;28;20099;-71
2023/03/26 02:42:46;;;;;;;6.10;4.32;;;;;;;;;;5095456;28;20020;-71
2023/03/26 02:45:31;;;;;;;6.57;4.40;;;;;;;;;;5095734;28;20020;-70
2023/03/26 02:48:17;;;;;;;8.55;5.13;;;;;;;;;;5081193;28;20024;-70
2023/03/26 02:51:03;;;;;;;6.60;5.00;;;;;;;;;;5081017;28;20056;-70
2023/03/26 02:53:49;;;;;;;6.05;4.70;;;;;;;;;;5095762;28;20465;-71
2023/03/26 02:56:34;;;;;;;6.03;4.93;;;;;;;;;;5094315;28;20028;-71
2023/03/26 02:59:20;;;;;;;7.05;5.10;;;;;;;;;;5095565;28;20024;-71
2023/03/26 03:02:06;;;;;;;7.90;4.70;;;;;;;;;;5094089;28;20103;-70
2023/03/26 03:05:00;;;;;;;8.80;4.50;;;;;;;;;;5095409;28;20024;-70
2023/03/26 03:07:46;;;;;;;6.97;4.90;;;;;;;;;;5094984;28;20044;-71
2023/03/26 03:10:31;;;;;;;7.60;4.95;;;;;;;;;;5094077;28;20048;-70
2023/03/26 03:13:17;;;;;;;6.68;4.75;;;;;;;;;;5080929;28;20067;-70
2023/03/26 03:16:02;;;;;;;7.50;4.60;;;;;;;;;;5093783;28;20016;-70
2023/03/26 03:18:53;;;;;;;5.90;4.60;;;;;;;;;;5081982;28;20058;-70
2023/03/26 03:21:39;;;;;;;5.32;4.40;;;;;;;;;;5094075;28;20020;-72
2023/03/26 03:24:26;;;;;;;6.57;4.32;;;;;;;;;;5095462;28;20055;-70
2023/03/26 03:27:11;;;;;;;5.43;4.30;;;;;;;;;;5079822;28;20060;-70
2023/03/26 03:29:57;;;;;;;7.15;4.22;;;;;;;;;;5094338;28;20028;-70
2023/03/26 03:32:43;;;;;;;7.28;4.00;;;;;;;;;;5094943;28;20050;-70
2023/03/26 03:35:29;;;;;;;6.85;4.43;;;;;;;;;;5093561;28;20020;-70
2023/03/26 03:38:16;;;;;;;6.15;4.38;;;;;;;;;;5081947;28;20031;-71
2023/03/26 03:41:01;;;;;;;6.22;4.38;;;;;;;;;;5094334;28;20032;-70
2023/03/26 03:43:47;;;;;;;6.90;4.30;;;;;;;;;;5094670;28;20020;-70
2023/03/26 03:46:32;;;;;;;9.18;4.18;;;;;;;;;;5094737;28;20066;-70
2023/03/26 03:49:18;;;;;;;5.05;3.67;;;;;;;;;;5094116;28;20383;-71
2023/03/26 03:52:04;;;;;;;5.78;4.25;;;;;;;;;;5094230;28;20465;-70
2023/03/26 03:54:50;;;;;;;4.75;3.97;;;;;;;;;;5094714;28;20024;-70
2023/03/26 03:57:36;;;;;;;7.72;4.47;;;;;;;;;;5093838;28;20055;-70
2023/03/26 04:00:21;;;;;;;4.88;4.10;;;;;;;;;;5093450;28;20039;-70
2023/03/26 04:03:07;;;;;;;5.80;4.10;;;;;;;;;;5094123;28;20414;-70
2023/03/26 04:05:53;;;;;;;6.85;4.55;;;;;;;;;;5093518;28;20072;-71
2023/03/26 04:08:39;;;;;;;5.30;4.45;;;;;;;;;;5079080;28;20028;-71
2023/03/26 04:11:25;;;;;;;5.85;4.50;;;;;;;;;;5094414;28;20111;-70
2023/03/26 04:14:10;;;;;;;6.18;4.50;;;;;;;;;;5093279;28;20024;-69
2023/03/26 04:16:56;;;;;;;5.22;3.83;;;;;;;;;;5093695;28;20103;-70
2023/03/26 04:19:43;;;;;;;8.38;4.38;;;;;;;;;;5093973;28;20364;-70
2023/03/26 04:22:33;;;;;;;5.38;3.67;;;;;;;;;;5093883;28;20028;-69
2023/03/26 04:25:20;;;;;;;6.10;4.13;;;;;;;;;;5079937;28;20024;-70
2023/03/26 04:28:06;;;;;;;6.45;3.80;;;;;;;;;;5093495;28;20052;-70
2023/03/26 04:30:53;;;;;;;5.85;3.78;;;;;;;;;;5093852;28;20367;-71
2023/03/26 04:33:39;;;;;;;6.45;3.67;;;;;;;;;;5093891;28;20432;-70
2023/03/26 04:36:28;;;;;;;4.82;3.70;;;;;;;;;;5092970;28;20395;-69
2023/03/26 04:39:15;;;;;;;5.60;4.00;;;;;;;;;;5078541;28;20027;-69
2023/03/26 04:42:00;;;;;;;6.22;3.58;;;;;;;;;;5093572;28;20449;-70
2023/03/26 04:44:49;;;;;;;5.22;3.47;;;;;;;;;;5079528;28;20035;-70
2023/03/26 04:47:35;;;;;;;5.10;3.65;;;;;;;;;;5093402;28;20024;-69
2023/03/26 04:50:21;;;;;;;5.07;3.40;;;;;;;;;;5092131;28;20020;-70
2023/03/26 04:53:09;;;;;;;4.68;3.95;;;;;;;;;;5094185;28;20016;-71
2023/03/26 04:56:12;;;;;;;5.60;3.70;;;;;;;;;;5093716;28;20440;-71
2023/03/26 04:58:59;;;;;;;6.53;3.80;;;;;;;;;;5079828;28;20031;-71
2023/03/26 05:01:45;;;;;;;9.05;3.65;;;;;;;;;;5079114;28;20031;-70
2023/03/26 05:04:33;;;;;;;4.70;3.53;;;;;;;;;;5092639;28;20334;-71
2023/03/26 05:07:21;;;;;;;5.32;3.63;;;;;;;;;;5094387;28;20043;-70
2023/03/26 05:10:07;;;;;;;6.57;3.60;;;;;;;;;;5097379;28;20165;-71
2023/03/26 05:12:53;;;;;;;5.45;3.88;;;;;;;;;;5083792;28;20462;-71
2023/03/26 05:15:38;;;;;;;7.22;3.95;;;;;;;;;;5097442;28;20028;-70
2023/03/26 05:18:24;;;;;;;5.80;4.03;;;;;;;;;;5082333;28;20360;-70
2023/03/26 05:21:10;;;;;;;6.13;4.28;;;;;;;;;;5097373;28;20028;-70
2023/03/26 05:23:55;;;;;;;8.10;4.18;;;;;;;;;;5096364;28;20016;-70
2023/03/26 05:26:41;;;;;;;8.07;4.30;;;;;;;;;;5082759;28;20429;-70
2023/03/26 05:29:26;;;;;;;5.43;4.18;;;;;;;;;;5096825;28;20115;-70
2023/03/26 05:32:12;;;;;;;6.20;4.50;;;;;;;;;;5096376;28;20024;-71
2023/03/26 05:34:58;;;;;;;6.95;4.30;;;;;;;;;;5097418;28;20031;-70
2023/03/26 05:37:44;;;;;;;12.23;4.70;;;;;;;;;;5096775;28;20060;-69
2023/03/26 05:40:29;;;;;;;8.98;5.47;;;;;;;;;;5096806;28;20027;-70
2023/03/26 05:43:15;;;;;;;7.45;5.15;;;;;;;;;;5095348;28;20024;-72
2023/03/26 05:46:01;;;;;;;12.98;4.88;;;;;;;;;;5097206;28;20465;-71
2023/03/26 05:48:46;;;;;;;7.05;5.03;;;;;;;;;;5096564;28;20028;-71
2023/03/26 05:51:32;;;;;;;6.70;4.40;;;;;;;;;;5082677;28;20016;-70
2023/03/26 05:54:17;;;;;;;6.18;4.35;;;;;;;;;;5082780;28;20024;-71
2023/03/26 05:57:03;;;;;;;9.32;4.63;;;;;;;;;;5095983;28;20052;-70
2023/03/26 05:59:49;;;;;;;7.55;4.35;;;;;;;;;;5081680;28;20104;-70
2023/03/26 06:02:35;;;;;;;7.82;4.50;;;;;;;;;;5082476;28;20024;-70
2023/03/26 06:05:20;;;;;;;7.70;4.10;;;;;;;;;;5095223;28;20026;-72
2023/03/26 06:08:06;;;;;;;8.88;4.47;;;;;;;;;;5067903;28;20391;-71
2023/03/26 06:10:59;;;;;;;6.93;4.32;;;;;;;;;;5095912;28;20016;-70
2023/03/26 06:13:45;;;;;;;9.95;3.92;;;;;;;;;;5082920;28;20047;-69
2023/03/26 06:16:31;;;;;;;5.40;3.90;;;;;;;;;;5096897;28;20338;-70
2023/03/26 06:19:17;;;;;;;9.68;4.60;;;;;;;;;;5095108;28;20028;-70
2023/03/26 06:22:03;;;;;;;6.22;3.80;;;;;;;;;;5094716;28;20016;-70
2023/03/26 06:24:49;;;;;;;5.05;3.58;;;;;;;;;;5095842;28;20119;-69
2023/03/26 06:27:35;;;;;;;5.97;4.38;;;;;;;;;;5081983;28;20100;-71
2023/03/26 06:30:20;;;;;;;7.85;4.15;;;;;;;;;;5096550;28;20043;-71
2023/03/26 06:33:06;;;;;;;5.10;3.83;;;;;;;;;;5094377;28;20464;-71
2023/03/26 06:35:51;;;;;;;4.53;3.70;;;;;;;;;;5096612;28;20466;-71
2023/03/26 06:38:37;;;;;;;7.82;4.53;;;;;;;;;;5094528;28;20038;-70
2023/03/26 06:41:23;;;;;;;6.40;3.83;;;;;;;;;;5095451;28;20067;-70
2023/03/26 06:44:10;;;;;;;8.52;3.33;;;;;;;;;;5081244;28;20034;-71
2023/03/26 06:46:55;;;;;;;4.47;3.13;;;;;;;;;;5095545;28;20027;-70
2023/03/26 06:49:41;;;;;;;7.32;3.50;;;;;;;;;;5094542;28;20505;-70
2023/03/26 06:52:27;;;;;;;7.30;3.15;;;;;;;;;;5081394;28;20035;-70
2023/03/26 06:55:13;;;;;;;4.70;3.33;;;;;;;;;;5095007;28;20016;-71
2023/03/26 06:57:58;;;;;;;4.85;3.17;;;;;;;;;;5095664;28;20056;-71
2023/03/26 07:00:44;;;;;;;5.72;3.22;;;;;;;;;;5094548;28;20039;-71
2023/03/26 07:03:29;;;;;;;5.53;2.80;;;;;;;;;;5095206;28;20082;-71
2023/03/26 07:06:15;;;;;;;5.07;2.80;;;;;;;;;;5093942;28;20036;-71
2023/03/26 07:09:00;;;;;;;5.30;3.20;;;;;;;;;;5095524;28;20441;-71
2023/03/26 07:11:46;;;;;;;4.72;2.80;;;;;;;;;;5095491;28;20024;-71
2023/03/26 07:14:33;;;;;;;5.18;3.00;;;;;;;;;;5099907;28;20428;-71
2023/03/26 07:17:18;;;;;;;4.90;2.80;;;;;;;;;;5096403;28;20016;-73
2023/03/26 07:20:05;;;;;;;3.80;2.40;;;;;;;;;;5095009;28;20027;-70
2023/03/26 07:22:51;;;;;;;6.57;3.78;;;;;;;;;;5095905;28;20035;-70
2023/03/26 07:25:36;;;;;;;5.70;2.63;;;;;;;;;;5094542;28;20445;-70
2023/03/26 07:28:40;;;;;;;4.43;3.50;;;;;;;;;;5094830;28;20153;-70
2023/03/26 07:31:26;;;;;;;5.30;2.60;;;;;;;;;;5094038;28;20069;-70
2023/03/26 07:34:18;;;;;;;4.78;2.53;;;;;;;;;;5095569;28;20060;-71
2023/03/26 07:37:12;;;;;;;4.88;2.80;;;;;;;;;;5093369;28;20416;-71
2023/03/26 07:40:00;;;;;;;4.70;2.75;;;;;;;;;;5079772;28;20099;-71
2023/03/26 07:42:58;;;;;;;4.13;2.70;;;;;;;;;;5094569;28;20020;-69
2023/03/26 07:45:44;;;;;;;3.67;2.38;;;;;;;;;;5080351;28;20465;-71
2023/03/26 07:48:36;;;;;;;3.78;2.50;;;;;;;;;;5095320;28;20100;-70
2023/03/26 07:51:22;;;;;;;4.18;2.55;;;;;;;;;;5093976;28;20076;-71
2023/03/26 07:54:09;;;;;;;4.97;2.55;;;;;;;;;;5080979;28;20024;-71
2023/03/26 07:56:56;;;;;;;4.30;2.47;;;;;;;;;;5079423;28;20173;-71
2023/03/26 07:59:45;;;;;;;3.47;2.10;;;;;;;;;;5094268;28;20031;-71
2023/03/26 08:02:43;;;;;;;3.72;2.63;;;;;;;;;;5093850;28;20098;-70
2023/03/26 08:05:30;;;;;;;3.35;2.33;;;;;;;;;;5080062;28;20103;-71
2023/03/26 08:08:19;;;;;;;4.68;2.53;;;;;;;;;;5093860;28;20035;-71
2023/03/26 08:11:16;;;;;;;4.50;2.30;;;;;;;;;;5093680;28;20450;-71
2023/03/26 08:14:28;;;;;;;5.82;2.28;;;;;;;;;;5080139;28;20182;-70
2023/03/26 08:17:23;;;;;;;5.75;2.42;;;;;;;;;;5093802;28;20020;-70
2023/03/26 08:20:21;;;;;;;4.13;1.98;;;;;;;;;;5092714;28;20024;-70
2023/03/26 08:23:22;;;;;;;5.15;2.15;;;;;;;;;;5092749;28;20043;-70
2023/03/26 08:26:11;;;;;;;6.75;2.50;;;;;;;;;;5093473;28;20015;-71
2023/03/26 08:29:01;;;;;;;3.38;2.17;;;;;;;;;;5093776;28;20012;-71
2023/03/26 08:31:47;;;;;;;5.05;2.00;;;;;;;;;;5093006;28;20063;-70
2023/03/26 08:34:33;;;;;;;4.10;2.38;;;;;;;;;;5079872;28;20016;-70
2023/03/26 08:37:18;;;;;;;4.45;2.40;;;;;;;;;;5093623;28;20019;-71
2023/03/26 08:40:05;;;;;;;7.15;2.20;;;;;;;;;;5079720;28;20089;-71
2023/03/26 08:43:09;;;;;;;10.65;2.22;;;;;;;;;;5093159;28;20032;-71
2023/03/26 08:46:14;;;;;;;7.38;2.13;;;;;;;;;;5079762;28;20132;-72
2023/03/26 08:49:02;;;;;;;3.70;2.30;;;;;;;;;;5093494;28;20043;-72
2023/03/26 08:51:48;;;;;;;3.40;2.10;;;;;;;;;;5079879;28;20121;-71
2023/03/26 08:54:50;;;;;;;4.55;2.25;;;;;;;;;;5094372;28;20031;-70
2023/03/26 08:58:01;;;;;;;5.60;2.30;;;;;;;;;;5093990;28;20433;-71
2023/03/26 09:00:53;;;;;;;5.72;2.00;;;;;;;;;;5068522;28;20028;-70
2023/03/26 09:03:38;;;;;;;9.57;2.30;;;;;;;;;;5093154;28;20020;-70
2023/03/26 09:06:36;;;;;;;6.28;1.90;;;;;;;;;;5079583;28;20048;-71
2023/03/26 09:09:28;;;;;;;5.35;2.00;;;;;;;;;;5079775;28;20093;-71
2023/03/26 09:12:32;;;;;;;4.85;1.98;;;;;;;;;;5092081;28;20023;-70
2023/03/26 09:15:41;;;;;;;3.97;1.77;;;;;;;;;;5093186;28;20024;-72
2023/03/26 09:18:35;;;;;;;4.43;2.05;;;;;;;;;;5093186;28;20020;-70
2023/03/26 09:21:34;;;;;;;5.07;1.83;;;;;;;;;;5093219;28;20357;-70
2023/03/26 09:24:29;;;;;;;4.45;1.90;;;;;;;;;;5092907;28;20047;-70
2023/03/26 09:27:14;;;;;;;3.03;1.90;;;;;;;;;;5077839;28;20035;-71
2023/03/26 09:30:19;;;;;;;2.67;1.80;;;;;;;;;;5093444;28;20051;-71
2023/03/26 09:33:26;;;;;;;11.88;6.63;;;;;;;;;;5092749;28;20027;-72
2023/03/26 09:36:18;;;;;;;1.90;1.52;;;;;;;;;;5092942;28;20020;-71
2023/03/26 09:39:22;;;;;;;3.13;1.70;;;;;;;;;;5092973;28;20035;-71
2023/03/26 09:42:10;;;;;;;3.42;1.50;;;;;;;;;;5092285;28;20024;-71
2023/03/26 09:45:14;;;;;;;5.57;1.98;;;;;;;;;;5092961;28;20020;-72
2023/03/26 09:48:38;;;;;;;3.05;1.80;;;;;;;;;;5092804;28;20016;-72
2023/03/26 09:51:33;;;;;;;8.65;1.75;;;;;;;;;;4991408;28;20059;-71
2023/03/26 09:54:37;;;;;;;3.10;1.83;;;;;;;;;;4996346;28;20024;-71
2023/03/26 09:57:40;;;;;;;2.78;1.73;;;;;;;;;;5097214;28;20051;-72
2023/03/26 10:00:26;;;;;;;3.92;1.88;;;;;;;;;;5096159;28;20027;-72
2023/03/26 10:03:28;;;;;;;4.50;1.80;;;;;;;;;;5095908;28;20510;-72
2023/03/26 10:06:21;;;;;;;3.05;1.70;;;;;;;;;;5095770;28;20094;-72
2023/03/26 10:09:16;;;;;;;3.50;1.52;;;;;;;;;;5096260;28;20016;-72
2023/03/26 10:12:05;;;;;;;5.75;1.83;;;;;;;;;;5096133;28;20035;-70
2023/03/26 10:14:50;;;;;;;6.15;1.88;;;;;;;;;;5095945;28;20030;-71
2023/03/26 10:17:36;;;;;;;5.28;2.30;;;;;;;;;;5082424;28;20024;-71
2023/03/26 10:20:28;;;;;;;3.47;2.05;;;;;;;;;;5082380;28;20031;-71
2023/03/26 10:23:32;;;;;;;3.38;1.60;;;;;;;;;;5096229;28;20024;-72
2023/03/26 10:26:36;;;;;;;5.53;1.65;;;;;;;;;;5096035;28;20021;-70
2023/03/26 10:29:22;;;;;;;3.17;1.70;;;;;;;;;;5095296;28;20031;-71
2023/03/26 10:32:26;;;;;;;3.58;2.20;;;;;;;;;;5094715;28;20360;-72
2023/03/26 10:35:11;;;;;;;5.03;1.90;;;;;;;;;;5082394;28;20472;-70
2023/03/26 10:38:08;;;;;;;2.40;1.70;;;;;;;;;;5095285;28;20103;-72
2023/03/26 10:40:58;;;;;;;3.70;1.80;;;;;;;;;;5081172;28;20452;-71
2023/03/26 10:43:44;;;;;;;4.05;2.10;;;;;;;;;;5095707;28;20106;-71
2023/03/26 10:46:30;;;;;;;5.65;2.25;;;;;;;;;;5095061;28;20030;-72
2023/03/26 10:49:48;;;;;;;3.05;2.10;;;;;;;;;;5094988;28;20095;-72
2023/03/26 10:52:37;;;;;;;4.32;2.58;;;;;;;;;;5053968;28;20127;-72
2023/03/26 10:55:45;;;;;;;5.68;2.40;;;;;;;;;;5095325;28;20119;-71
2023/03/26 10:58:31;;;;;;;5.15;2.50;;;;;;;;;;5095291;28;20024;-72
2023/03/26 11:01:17;;;;;;;2.20;1.50;;;;;;;;;;5095875;28;20023;-71
2023/03/26 11:04:17;;;;;;;4.45;2.00;;;;;;;;;;5094676;28;20072;-73
2023/03/26 11:07:21;;;;;;;2.95;1.90;;;;;;;;;;5094242;28;20357;-71
2023/03/26 11:10:25;;;;;;;2.40;1.77;;;;;;;;;;5095403;28;20022;-72
2023/03/26 11:13:16;;;;;;;2.10;1.52;;;;;;;;;;5095105;28;20392;-72
2023/03/26 11:16:05;;;;;;;5.72;3.58;;;;;;;;;;5095305;28;20016;-72
2023/03/26 11:19:10;;;;;;;3.95;1.50;;;;;;;;;;5095357;28;20383;-71
2023/03/26 11:22:01;;;;;;;2.97;1.80;;;;;;;;;;5095492;28;20047;-71
2023/03/26 11:24:46;;;;;;;2.42;1.80;;;;;;;;;;5094443;28;20020;-71
2023/03/26 11:27:52;;;;;;;1.73;1.50;;;;;;;;;;5094657;28;20089;-71
2023/03/26 11:30:41;;;;;;;2.78;2.00;;;;;;;;;;5094934;28;20435;-71
2023/03/26 11:33:30;;;;;;;3.13;1.90;;;;;;;;;;5095402;28;20443;-71
2023/03/26 11:36:18;;;;;;;4.60;2.10;;;;;;;;;;5095209;28;20020;-71
2023/03/26 11:39:08;;;;;;;8.82;2.30;;;;;;;;;;5094552;28;20020;-71
2023/03/26 11:42:00;;;;;;;3.72;2.00;;;;;;;;;;5094121;28;20444;-70
2023/03/26 11:44:54;;;;;;;2.28;1.60;;;;;;;;;;5094110;28;20054;-71
2023/03/26 11:47:43;;;;;;;6.30;2.00;;;;;;;;;;5094246;28;20027;-70
2023/03/26 11:50:31;;;;;;;4.07;1.75;;;;;;;;;;5095140;28;20411;-71
2023/03/26 11:53:18;;;;;;;2.95;1.73;;;;;;;;;;5094584;28;20443;-72
2023/03/26 11:56:08;;;;;;;2.67;2.00;;;;;;;;;;5095768;28;20032;-71
2023/03/26 11:58:59;;;;;;;4.18;1.90;;;;;;;;;;5093792;28;20352;-70
2023/03/26 12:01:49;;;;;;;6.90;1.80;;;;;;;;;;5093638;28;20020;-73
2023/03/26 12:04:39;;;;;;;9.32;2.25;;;;;;;;;;5093887;28;20081;-71
2023/03/26 12:07:31;;;;;;;2.75;1.60;;;;;;;;;;5094030;28;20465;-71
2023/03/26 12:10:25;;;;;;;2.10;1.50;;;;;;;;;;5094378;28;20048;-71
2023/03/26 12:13:20;;;;;;;4.50;1.90;;;;;;;;;;5094549;28;20024;-72
2023/03/26 12:16:09;;;;;;;3.03;1.90;;;;;;;;;;5079883;28;20020;-71
2023/03/26 12:18:59;;;;;;;2.35;1.83;;;;;;;;;;5094441;28;20024;-72
2023/03/26 12:21:45;;;;;;;3.15;1.77;;;;;;;;;;5094670;28;20030;-72
2023/03/26 12:24:33;;;;;;;2.33;1.60;;;;;;;;;;5093459;28;20169;-71
2023/03/26 12:27:27;;;;;;;3.88;1.90;;;;;;;;;;5093705;28;20101;-71
2023/03/26 12:30:22;;;;;;;2.00;1.73;;;;;;;;;;5079751;28;20496;-72
2023/03/26 12:33:25;;;;;;;2.67;1.75;;;;;;;;;;5093090;28;20023;-71
2023/03/26 12:36:19;;;;;;;3.78;2.25;;;;;;;;;;5079553;28;20032;-72
2023/03/26 12:39:22;;;;;;;2.13;1.60;;;;;;;;;;5078613;28;20083;-71
2023/03/26 12:42:23;;;;;;;2.40;1.60;;;;;;;;;;5079002;28;20031;-71
2023/03/26 12:45:11;;;;;;;3.53;1.50;;;;;;;;;;5093639;28;20034;-71
2023/03/26 12:47:59;;;;;;;1.70;1.45;;;;;;;;;;5094039;28;20055;-72
2023/03/26 12:50:56;;;;;;;2.53;1.52;;;;;;;;;;5092955;28;20480;-72
2023/03/26 12:53:48;;;;;;;4.82;1.90;;;;;;;;;;5080185;28;20073;-72
2023/03/26 12:56:52;;;;;;;1.98;1.40;;;;;;;;;;5093929;28;20049;-73
2023/03/26 12:59:44;;;;;;;2.30;1.58;;;;;;;;;;5093559;28;20357;-71
2023/03/26 13:02:42;;;;;;;2.85;1.45;;;;;;;;;;5078913;28;20100;-73
2023/03/26 13:05:48;;;;;;;2.88;1.23;;;;;;;;;;5079610;28;20052;-71
2023/03/26 13:08:52;;;;;;;1.75;1.20;;;;;;;;;;5093903;28;20460;-72
2023/03/26 13:11:43;;;;;;;3.15;1.30;;;;;;;;;;5093878;28;20440;-71
2023/03/26 13:15:07;;;;;;;3.58;1.30;;;;;;;;;;5079914;28;20448;-71
2023/03/26 13:17:52;;;;;;;1.75;1.25;;;;;;;;;;4992221;28;20034;-71
2023/03/26 13:20:50;;;;;;;1.77;1.20;;;;;;;;;;5094865;28;20024;-72
2023/03/26 13:23:35;;;;;;;2.33;1.20;;;;;;;;;;5078488;28;20024;-70
2023/03/26 13:26:27;;;;;;;2.65;1.40;;;;;;;;;;5094382;28;20024;-72
2023/03/26 13:29:28;;;;;;;4.47;1.48;;;;;;;;;;5096792;28;20436;-71
2023/03/26 13:32:26;;;;;;;3.05;1.63;;;;;;;;;;5082913;28;20023;-73
2023/03/26 13:35:12;;;;;;;3.70;1.90;;;;;;;;;;5097202;28;20020;-72
2023/03/26 13:38:05;;;;;;;4.65;1.17;;;;;;;;;;5096826;28;20039;-72
2023/03/26 13:41:03;;;;;;;1.27;1.15;;;;;;;;;;5098161;28;20457;-73
2023/03/26 13:43:55;;;;;;;4.88;1.88;;;;;;;;;;5097055;28;20020;-71
2023/03/26 13:46:41;;;;;;;2.78;1.50;;;;;;;;;;5096821;28;20031;-71
2023/03/26 13:49:27;;;;;;;2.70;1.40;;;;;;;;;;5096916;28;20028;-72
2023/03/26 13:52:27;;;;;;;2.45;1.27;;;;;;;;;;5097304;28;20016;-72
2023/03/26 13:55:18;;;;;;;3.42;1.38;;;;;;;;;;5096393;28;20024;-71
2023/03/26 13:58:10;;;;;;;5.05;1.70;;;;;;;;;;5096074;28;20111;-71
2023/03/26 14:01:15;;;;;;;1.45;1.13;;;;;;;;;;5096966;28;20099;-72
2023/03/26 14:04:01;;;;;;;2.88;1.30;;;;;;;;;;5082831;28;20028;-71
2023/03/26 14:06:59;;;;;;;7.57;1.55;;;;;;;;;;5096512;28;20040;-71
2023/03/26 14:09:51;;;;;;;2.08;1.40;;;;;;;;;;5082153;28;20016;-73
2023/03/26 14:12:55;;;;;;;2.97;1.30;;;;;;;;;;5097014;28;20024;-72
2023/03/26 14:15:45;;;;;;;3.33;1.30;;;;;;;;;;5095949;28;20112;-73
2023/03/26 14:18:43;;;;;;;2.30;1.38;;;;;;;;;;5096901;28;20027;-72
2023/03/26 14:21:47;;;;;;;2.58;1.35;;;;;;;;;;5082344;28;20032;-72
2023/03/26 14:24:39;;;;;;;3.15;1.25;;;;;;;;;;5082188;28;20024;-72
2023/03/26 14:27:36;;;;;;;4.20;1.40;;;;;;;;;;5095931;28;20518;-71
2023/03/26 14:30:37;;;;;;;2.08;1.30;;;;;;;;;;5096191;28;20395;-71
2023/03/26 14:33:41;;;;;;;2.05;1.30;;;;;;;;;;5096418;28;20066;-72
2023/03/26 14:36:41;;;;;;;3.47;1.55;;;;;;;;;;5096394;28;20016;-72
2023/03/26 14:40:00;;;;;;;2.22;1.35;;;;;;;;;;5095877;28;20051;-71
2023/03/26 14:42:52;;;;;;;4.60;1.35;;;;;;;;;;5055580;28;20397;-72
2023/03/26 14:46:13;;;;;;;7.07;1.92;;;;;;;;;;5067907;28;20016;-71
2023/03/26 14:49:04;;;;;;;5.15;1.70;;;;;;;;;;4995538;28;20022;-70
2023/03/26 14:52:00;;;;;;;1.60;1.20;;;;;;;;;;5082437;28;20267;-71
2023/03/26 14:54:48;;;;;;;5.07;1.50;;;;;;;;;;5096535;28;20153;-72
2023/03/26 14:57:46;;;;;;;2.80;1.10;;;;;;;;;;5081505;28;20020;-71
2023/03/26 15:00:50;;;;;;;2.20;1.10;;;;;;;;;;5095662;28;20027;-71
2023/03/26 15:03:39;;;;;;;2.72;1.27;;;;;;;;;;5079972;28;20016;-70
2023/03/26 15:06:49;;;;;;;1.75;1.20;;;;;;;;;;5096477;28;20046;-71
2023/03/26 15:09:53;;;;;;;3.50;1.40;;;;;;;;;;5094749;28;20073;-71
2023/03/26 15:12:46;;;;;;;4.68;2.50;;;;;;;;;;5081420;28;20023;-70
2023/03/26 15:15:50;;;;;;;3.38;1.83;;;;;;;;;;5094493;28;20103;-70
2023/03/26 15:18:54;;;;;;;2.50;1.55;;;;;;;;;;5095041;28;20020;-71
2023/03/26 15:21:55;;;;;;;2.13;1.45;;;;;;;;;;5094848;28;20035;-71
2023/03/26 15:24:44;;;;;;;4.13;1.40;;;;;;;;;;5094339;28;20032;-71
2023/03/26 15:27:37;;;;;;;2.10;1.50;;;;;;;;;;5081383;28;20110;-70
2023/03/26 15:30:29;;;;;;;4.15;2.78;;;;;;;;;;5094513;28;20070;-71
2023/03/26 15:33:33;;;;;;;5.25;3.25;;;;;;;;;;5081251;28;20016;-71
2023/03/26 15:36:35;;;;;;;3.35;2.30;;;;;;;;;;5095072;28;20022;-70
2023/03/26 15:39:24;;;;;;;5.18;2.40;;;;;;;;;;5095201;28;20452;-71
2023/03/26 15:42:10;;;;;;;4.65;2.05;;;;;;;;;;5093859;28;20364;-71
2023/03/26 15:44:55;;;;;;;4.57;2.83;;;;;;;;;;5094127;28;20023;-70
2023/03/26 15:47:53;;;;;;;5.97;3.00;;;;;;;;;;5094144;28;20028;-71
2023/03/26 15:50:44;;;;;;;9.20;3.90;;;;;;;;;;5080050;28;20116;-71
2023/03/26 15:53:35;;;;;;;5.90;2.40;;;;;;;;;;5094019;28;20109;-71
2023/03/26 15:56:28;;;;;;;6.90;2.63;;;;;;;;;;5065224;28;20024;-70
2023/03/26 15:59:32;;;;;;;5.13;2.40;;;;;;;;;;5093656;28;20092;-72
2023/03/26 16:02:38;;;;;;;4.53;2.53;;;;;;;;;;5093610;28;20028;-70
2023/03/26 16:05:24;;;;;;;4.28;2.42;;;;;;;;;;5056241;28;20035;-71
2023/03/26 16:08:17;;;;;;;3.53;2.45;;;;;;;;;;5094148;28;20472;-71
2023/03/26 16:11:06;;;;;;;3.30;1.80;;;;;;;;;;5093362;28;20394;-71
2023/03/26 16:14:12;;;;;;;1.83;1.55;;;;;;;;;;5094302;28;20020;-72
2023/03/26 16:16:58;;;;;;;4.10;1.98;;;;;;;;;;5080657;28;20027;-71
2023/03/26 16:19:48;;;;;;;3.63;1.85;;;;;;;;;;5093368;28;20525;-71
2023/03/26 16:22:36;;;;;;;4.13;2.40;;;;;;;;;;5094043;28;20024;-71
2023/03/26 16:25:24;;;;;;;3.88;2.00;;;;;;;;;;5094748;28;20027;-73
2023/03/26 16:28:39;;;;;;;3.92;2.13;;;;;;;;;;5093454;28;20035;-72
2023/03/26 16:31:25;;;;;;;2.95;1.90;;;;;;;;;;5018435;28;20333;-71
2023/03/26 16:34:25;;;;;;;4.07;2.00;;;;;;;;;;5078650;28;20074;-71
2023/03/26 16:37:29;;;;;;;5.30;2.30;;;;;;;;;;5078356;28;20492;-71
2023/03/26 16:40:15;;;;;;;3.78;1.75;;;;;;;;;;5080298;28;20051;-71
2023/03/26 16:43:25;;;;;;;3.28;2.00;;;;;;;;;;5093494;28;20032;-70
2023/03/26 16:46:29;;;;;;;3.97;1.70;;;;;;;;;;5062315;28;20137;-71
2023/03/26 16:49:15;;;;;;;9.88;1.90;;;;;;;;;;5093144;28;20099;-71
2023/03/26 16:52:05;;;;;;;5.90;2.03;;;;;;;;;;5093176;28;20051;-71
2023/03/26 16:54:55;;;;;;;4.28;1.90;;;;;;;;;;5093960;28;20074;-71
2023/03/26 16:57:44;;;;;;;3.15;1.70;;;;;;;;;;5093172;28;20081;-70
2023/03/26 17:00:40;;;;;;;4.43;2.10;;;;;;;;;;5092668;28;20012;-70
2023/03/26 17:03:26;;;;;;;10.77;2.53;;;;;;;;;;5095399;28;20453;-71
2023/03/26 17:06:31;;;;;;;4.45;2.10;;;;;;;;;;5096525;28;20048;-71
2023/03/26 17:09:22;;;;;;;4.70;2.17;;;;;;;;;;5097288;28;20499;-72